sensor_id;sensor_type;location;lat;lon;timestamp;P1;durP1;ratioP1;P2;durP2;ratioP2
25905;SDS011;13713;52.552;13.204;2022-11-15T00:00:32;74.60;;;45.03;;
25905;SDS011;13713;52.552;13.204;2022-11-15T00:03:18;74.13;;;44.88;;
25905;SDS011;13713;52.552;13.204;2022-11-15T00:06:04;75.78;;;44.83;;
25905;SDS011;13713;52.552;13.204;2022-11-15T00:08:48;70.13;;;43.92;;
25905;SDS011;13713;52.552;13.204;2022-11-15T00:11:33;74.30;;;44.95;;
25905;SDS011;13713;52.552;13.204;2022-11-15T00:14:17;70.55;;;43.47;;
25905;SDS011;13713;52.552;13.204;2022-11-15T00:17:01;71.85;;;44.25;;
25905;SDS011;13713;52.552;13.204;2022-11-15T00:19:45;72.38;;;44.33;;
25905;SDS011;13713;52.552;13.204;2022-11-15T00:22:33;71.65;;;42.92;;
25905;SDS011;13713;52.552;13.204;2022-11-15T00:25:17;73.05;;;44.85;;
25905;SDS011;13713;52.552;13.204;2022-11-15T00:28:01;73.55;;;44.35;;
25905;SDS011;13713;52.552;13.204;2022-11-15T00:30:46;75.45;;;45.13;;
25905;SDS011;13713;52.552;13.204;2022-11-15T00:33:30;71.00;;;43.53;;
25905;SDS011;13713;52.552;13.204;2022-11-15T00:36:14;70.35;;;43.42;;
25905;SDS011;13713;52.552;13.204;2022-11-15T00:38:58;71.20;;;42.80;;
25905;SDS011;13713;52.552;13.204;2022-11-15T00:41:42;73.25;;;44.63;;
25905;SDS011;13713;52.552;13.204;2022-11-15T00:44:26;70.60;;;43.05;;
25905;SDS011;13713;52.552;13.204;2022-11-15T00:47:10;72.78;;;42.20;;
25905;SDS011;13713;52.552;13.204;2022-11-15T00:49:54;71.15;;;42.47;;
25905;SDS011;13713;52.552;13.204;2022-11-15T00:52:38;71.75;;;43.47;;
25905;SDS011;13713;52.552;13.204;2022-11-15T00:55:22;69.97;;;43.50;;
25905;SDS011;13713;52.552;13.204;2022-11-15T00:58:07;69.40;;;43.08;;
25905;SDS011;13713;52.552;13.204;2022-11-15T01:00:51;67.95;;;42.38;;
25905;SDS011;13713;52.552;13.204;2022-11-15T01:03:35;68.63;;;42.90;;
25905;SDS011;13713;52.552;13.204;2022-11-15T01:06:21;73.03;;;43.13;;
25905;SDS011;13713;52.552;13.204;2022-11-15T01:09:05;70.70;;;42.33;;
25905;SDS011;13713;52.552;13.204;2022-11-15T01:11:49;68.80;;;41.58;;
25905;SDS011;13713;52.552;13.204;2022-11-15T01:14:33;64.68;;;39.88;;
25905;SDS011;13713;52.552;13.204;2022-11-15T01:17:17;65.63;;;41.53;;
25905;SDS011;13713;52.552;13.204;2022-11-15T01:20:01;67.97;;;41.90;;
25905;SDS011;13713;52.552;13.204;2022-11-15T01:22:46;71.03;;;43.42;;
25905;SDS011;13713;52.552;13.204;2022-11-15T01:25:30;68.28;;;42.60;;
25905;SDS011;13713;52.552;13.204;2022-11-15T01:28:14;68.13;;;42.05;;
25905;SDS011;13713;52.552;13.204;2022-11-15T01:30:59;69.07;;;43.00;;
25905;SDS011;13713;52.552;13.204;2022-11-15T01:33:44;67.60;;;41.85;;
25905;SDS011;13713;52.552;13.204;2022-11-15T01:36:29;61.92;;;40.05;;
25905;SDS011;13713;52.552;13.204;2022-11-15T01:39:13;66.57;;;39.97;;
25905;SDS011;13713;52.552;13.204;2022-11-15T01:41:58;65.45;;;41.13;;
25905;SDS011;13713;52.552;13.204;2022-11-15T01:44:50;69.43;;;41.80;;
25905;SDS011;13713;52.552;13.204;2022-11-15T01:47:36;69.88;;;41.10;;
25905;SDS011;13713;52.552;13.204;2022-11-15T01:50:25;70.32;;;42.55;;
25905;SDS011;13713;52.552;13.204;2022-11-15T01:53:13;69.07;;;41.65;;
25905;SDS011;13713;52.552;13.204;2022-11-15T01:55:58;66.88;;;41.05;;
25905;SDS011;13713;52.552;13.204;2022-11-15T01:58:45;66.60;;;41.88;;
25905;SDS011;13713;52.552;13.204;2022-11-15T02:01:30;69.18;;;42.42;;
25905;SDS011;13713;52.552;13.204;2022-11-15T02:04:18;71.45;;;42.35;;
25905;SDS011;13713;52.552;13.204;2022-11-15T02:07:07;68.63;;;41.58;;
25905;SDS011;13713;52.552;13.204;2022-11-15T02:09:54;67.55;;;41.20;;
25905;SDS011;13713;52.552;13.204;2022-11-15T02:12:38;70.38;;;42.83;;
25905;SDS011;13713;52.552;13.204;2022-11-15T02:15:24;66.25;;;41.83;;
25905;SDS011;13713;52.552;13.204;2022-11-15T02:18:16;69.07;;;41.67;;
25905;SDS011;13713;52.552;13.204;2022-11-15T02:24:06;66.25;;;40.42;;
25905;SDS011;13713;52.552;13.204;2022-11-15T02:30:20;68.22;;;40.63;;
25905;SDS011;13713;52.552;13.204;2022-11-15T02:42:23;66.95;;;40.42;;
25905;SDS011;13713;52.552;13.204;2022-11-15T02:45:33;64.53;;;38.92;;
25905;SDS011;13713;52.552;13.204;2022-11-15T02:48:22;66.30;;;38.97;;
25905;SDS011;13713;52.552;13.204;2022-11-15T02:51:08;67.05;;;41.45;;
25905;SDS011;13713;52.552;13.204;2022-11-15T02:53:53;65.82;;;39.47;;
25905;SDS011;13713;52.552;13.204;2022-11-15T02:56:37;65.63;;;40.05;;
25905;SDS011;13713;52.552;13.204;2022-11-15T03:02:55;69.18;;;41.30;;
25905;SDS011;13713;52.552;13.204;2022-11-15T03:05:56;64.45;;;38.40;;
25905;SDS011;13713;52.552;13.204;2022-11-15T03:09:07;63.42;;;38.90;;
25905;SDS011;13713;52.552;13.204;2022-11-15T03:12:06;63.58;;;39.13;;
25905;SDS011;13713;52.552;13.204;2022-11-15T03:14:57;66.63;;;41.10;;
25905;SDS011;13713;52.552;13.204;2022-11-15T03:17:51;65.35;;;39.22;;
25905;SDS011;13713;52.552;13.204;2022-11-15T03:20:41;65.28;;;38.83;;
25905;SDS011;13713;52.552;13.204;2022-11-15T03:23:27;61.03;;;37.53;;
25905;SDS011;13713;52.552;13.204;2022-11-15T03:26:14;68.15;;;41.13;;
25905;SDS011;13713;52.552;13.204;2022-11-15T03:29:09;66.78;;;41.45;;
25905;SDS011;13713;52.552;13.204;2022-11-15T03:32:00;62.20;;;38.35;;
25905;SDS011;13713;52.552;13.204;2022-11-15T03:34:58;65.15;;;39.25;;
25905;SDS011;13713;52.552;13.204;2022-11-15T03:41:09;62.63;;;39.60;;
25905;SDS011;13713;52.552;13.204;2022-11-15T03:44:10;65.47;;;39.05;;
25905;SDS011;13713;52.552;13.204;2022-11-15T03:50:08;66.40;;;38.90;;
25905;SDS011;13713;52.552;13.204;2022-11-15T03:52:56;63.90;;;39.03;;
25905;SDS011;13713;52.552;13.204;2022-11-15T03:55:41;63.25;;;39.00;;
25905;SDS011;13713;52.552;13.204;2022-11-15T03:58:25;65.88;;;39.63;;
25905;SDS011;13713;52.552;13.204;2022-11-15T04:01:09;61.85;;;37.60;;
25905;SDS011;13713;52.552;13.204;2022-11-15T04:03:53;63.63;;;38.33;;
25905;SDS011;13713;52.552;13.204;2022-11-15T04:06:37;64.43;;;38.63;;
25905;SDS011;13713;52.552;13.204;2022-11-15T04:09:21;62.10;;;38.28;;
25905;SDS011;13713;52.552;13.204;2022-11-15T04:12:05;63.60;;;38.13;;
25905;SDS011;13713;52.552;13.204;2022-11-15T04:14:49;67.95;;;40.72;;
25905;SDS011;13713;52.552;13.204;2022-11-15T04:17:54;63.00;;;38.42;;
25905;SDS011;13713;52.552;13.204;2022-11-15T04:20:39;62.78;;;37.28;;
25905;SDS011;13713;52.552;13.204;2022-11-15T04:23:42;60.78;;;36.70;;
25905;SDS011;13713;52.552;13.204;2022-11-15T04:26:46;65.70;;;38.05;;
25905;SDS011;13713;52.552;13.204;2022-11-15T04:29:30;64.22;;;38.80;;
25905;SDS011;13713;52.552;13.204;2022-11-15T04:32:20;62.88;;;38.50;;
25905;SDS011;13713;52.552;13.204;2022-11-15T04:35:04;64.18;;;38.28;;
25905;SDS011;13713;52.552;13.204;2022-11-15T04:37:48;62.78;;;37.17;;
25905;SDS011;13713;52.552;13.204;2022-11-15T04:40:33;63.63;;;38.00;;
25905;SDS011;13713;52.552;13.204;2022-11-15T04:43:17;61.85;;;37.08;;
25905;SDS011;13713;52.552;13.204;2022-11-15T04:46:01;60.30;;;36.53;;
25905;SDS011;13713;52.552;13.204;2022-11-15T04:48:45;66.43;;;38.67;;
25905;SDS011;13713;52.552;13.204;2022-11-15T04:51:30;61.10;;;38.80;;
25905;SDS011;13713;52.552;13.204;2022-11-15T04:54:14;65.80;;;39.58;;
25905;SDS011;13713;52.552;13.204;2022-11-15T04:56:58;64.45;;;37.85;;
25905;SDS011;13713;52.552;13.204;2022-11-15T04:59:42;64.35;;;38.72;;
25905;SDS011;13713;52.552;13.204;2022-11-15T05:02:26;61.50;;;37.50;;
25905;SDS011;13713;52.552;13.204;2022-11-15T05:05:30;62.60;;;38.22;;
25905;SDS011;13713;52.552;13.204;2022-11-15T05:08:14;62.17;;;38.05;;
25905;SDS011;13713;52.552;13.204;2022-11-15T05:10:58;65.68;;;38.15;;
25905;SDS011;13713;52.552;13.204;2022-11-15T05:13:42;66.25;;;39.38;;
25905;SDS011;13713;52.552;13.204;2022-11-15T05:16:26;64.15;;;38.55;;
25905;SDS011;13713;52.552;13.204;2022-11-15T05:19:10;64.85;;;39.22;;
25905;SDS011;13713;52.552;13.204;2022-11-15T05:21:54;60.92;;;35.88;;
25905;SDS011;13713;52.552;13.204;2022-11-15T05:24:38;70.68;;;40.17;;
25905;SDS011;13713;52.552;13.204;2022-11-15T05:27:22;65.05;;;38.78;;
25905;SDS011;13713;52.552;13.204;2022-11-15T05:30:06;65.72;;;37.58;;
25905;SDS011;13713;52.552;13.204;2022-11-15T05:32:51;63.63;;;37.13;;
25905;SDS011;13713;52.552;13.204;2022-11-15T05:35:42;63.08;;;37.85;;
25905;SDS011;13713;52.552;13.204;2022-11-15T05:38:41;66.18;;;39.10;;
25905;SDS011;13713;52.552;13.204;2022-11-15T05:41:27;65.47;;;39.00;;
25905;SDS011;13713;52.552;13.204;2022-11-15T05:44:18;69.28;;;39.95;;
25905;SDS011;13713;52.552;13.204;2022-11-15T05:47:07;64.38;;;37.67;;
25905;SDS011;13713;52.552;13.204;2022-11-15T05:49:56;63.55;;;39.22;;
25905;SDS011;13713;52.552;13.204;2022-11-15T05:52:41;68.45;;;40.65;;
25905;SDS011;13713;52.552;13.204;2022-11-15T05:55:26;67.50;;;39.35;;
25905;SDS011;13713;52.552;13.204;2022-11-15T05:58:11;62.53;;;36.75;;
25905;SDS011;13713;52.552;13.204;2022-11-15T06:00:54;69.22;;;41.38;;
25905;SDS011;13713;52.552;13.204;2022-11-15T06:03:39;72.07;;;42.15;;
25905;SDS011;13713;52.552;13.204;2022-11-15T06:06:23;79.95;;;45.80;;
25905;SDS011;13713;52.552;13.204;2022-11-15T06:09:07;86.40;;;49.95;;
25905;SDS011;13713;52.552;13.204;2022-11-15T06:11:51;78.50;;;48.45;;
25905;SDS011;13713;52.552;13.204;2022-11-15T06:14:35;78.82;;;47.50;;
25905;SDS011;13713;52.552;13.204;2022-11-15T06:17:23;81.93;;;48.20;;
25905;SDS011;13713;52.552;13.204;2022-11-15T06:20:07;77.90;;;46.38;;
25905;SDS011;13713;52.552;13.204;2022-11-15T06:22:55;80.57;;;48.45;;
25905;SDS011;13713;52.552;13.204;2022-11-15T06:25:44;84.88;;;48.28;;
25905;SDS011;13713;52.552;13.204;2022-11-15T06:28:31;85.00;;;47.80;;
25905;SDS011;13713;52.552;13.204;2022-11-15T06:31:16;87.57;;;48.05;;
25905;SDS011;13713;52.552;13.204;2022-11-15T06:34:00;82.18;;;46.05;;
25905;SDS011;13713;52.552;13.204;2022-11-15T06:36:44;81.53;;;44.97;;
25905;SDS011;13713;52.552;13.204;2022-11-15T06:39:28;83.38;;;46.00;;
25905;SDS011;13713;52.552;13.204;2022-11-15T06:42:12;84.38;;;46.88;;
25905;SDS011;13713;52.552;13.204;2022-11-15T06:44:56;75.53;;;43.92;;
25905;SDS011;13713;52.552;13.204;2022-11-15T06:47:44;87.40;;;45.22;;
25905;SDS011;13713;52.552;13.204;2022-11-15T06:50:30;80.93;;;44.90;;
25905;SDS011;13713;52.552;13.204;2022-11-15T06:53:14;77.95;;;44.75;;
25905;SDS011;13713;52.552;13.204;2022-11-15T06:55:59;84.47;;;47.35;;
25905;SDS011;13713;52.552;13.204;2022-11-15T06:58:44;146.07;;;58.50;;
25905;SDS011;13713;52.552;13.204;2022-11-15T07:01:28;156.55;;;56.47;;
25905;SDS011;13713;52.552;13.204;2022-11-15T07:04:13;109.25;;;50.15;;
25905;SDS011;13713;52.552;13.204;2022-11-15T07:06:57;103.72;;;52.25;;
25905;SDS011;13713;52.552;13.204;2022-11-15T07:09:41;103.15;;;51.22;;
25905;SDS011;13713;52.552;13.204;2022-11-15T07:12:25;113.78;;;52.40;;
25905;SDS011;13713;52.552;13.204;2022-11-15T07:15:09;239.82;;;58.20;;
25905;SDS011;13713;52.552;13.204;2022-11-15T07:17:53;180.85;;;53.47;;
25905;SDS011;13713;52.552;13.204;2022-11-15T07:20:37;144.75;;;51.08;;
25905;SDS011;13713;52.552;13.204;2022-11-15T07:23:21;128.25;;;49.33;;
25905;SDS011;13713;52.552;13.204;2022-11-15T07:26:06;124.15;;;46.83;;
25905;SDS011;13713;52.552;13.204;2022-11-15T07:28:51;113.70;;;46.20;;
25905;SDS011;13713;52.552;13.204;2022-11-15T07:31:35;107.25;;;44.22;;
25905;SDS011;13713;52.552;13.204;2022-11-15T07:34:19;112.65;;;45.33;;
25905;SDS011;13713;52.552;13.204;2022-11-15T07:37:03;104.32;;;43.80;;
25905;SDS011;13713;52.552;13.204;2022-11-15T07:39:47;96.40;;;42.30;;
25905;SDS011;13713;52.552;13.204;2022-11-15T07:42:31;103.03;;;44.40;;
25905;SDS011;13713;52.552;13.204;2022-11-15T07:45:39;105.43;;;41.92;;
25905;SDS011;13713;52.552;13.204;2022-11-15T07:48:25;99.78;;;44.20;;
25905;SDS011;13713;52.552;13.204;2022-11-15T07:51:12;100.55;;;41.60;;
25905;SDS011;13713;52.552;13.204;2022-11-15T07:53:58;148.90;;;81.15;;
25905;SDS011;13713;52.552;13.204;2022-11-15T07:56:42;132.60;;;60.33;;
25905;SDS011;13713;52.552;13.204;2022-11-15T07:59:26;123.25;;;54.35;;
25905;SDS011;13713;52.552;13.204;2022-11-15T08:02:10;128.23;;;56.90;;
25905;SDS011;13713;52.552;13.204;2022-11-15T08:04:54;134.18;;;58.80;;
25905;SDS011;13713;52.552;13.204;2022-11-15T08:07:38;144.88;;;58.65;;
25905;SDS011;13713;52.552;13.204;2022-11-15T08:10:24;140.23;;;59.17;;
25905;SDS011;13713;52.552;13.204;2022-11-15T08:13:10;146.32;;;57.40;;
25905;SDS011;13713;52.552;13.204;2022-11-15T08:15:59;136.40;;;56.65;;
25905;SDS011;13713;52.552;13.204;2022-11-15T08:18:43;143.55;;;58.58;;
25905;SDS011;13713;52.552;13.204;2022-11-15T08:21:28;129.85;;;55.08;;
25905;SDS011;13713;52.552;13.204;2022-11-15T08:24:12;127.38;;;54.05;;
25905;SDS011;13713;52.552;13.204;2022-11-15T08:26:56;133.32;;;55.08;;
25905;SDS011;13713;52.552;13.204;2022-11-15T08:29:41;135.32;;;53.22;;
25905;SDS011;13713;52.552;13.204;2022-11-15T08:32:26;130.20;;;53.45;;
25905;SDS011;13713;52.552;13.204;2022-11-15T08:35:10;130.07;;;55.28;;
25905;SDS011;13713;52.552;13.204;2022-11-15T08:37:54;132.05;;;54.47;;
25905;SDS011;13713;52.552;13.204;2022-11-15T08:40:38;138.40;;;54.05;;
25905;SDS011;13713;52.552;13.204;2022-11-15T08:43:22;125.93;;;51.58;;
25905;SDS011;13713;52.552;13.204;2022-11-15T08:46:07;121.05;;;50.90;;
25905;SDS011;13713;52.552;13.204;2022-11-15T08:48:55;119.22;;;51.08;;
25905;SDS011;13713;52.552;13.204;2022-11-15T08:51:39;116.72;;;49.78;;
25905;SDS011;13713;52.552;13.204;2022-11-15T08:54:23;122.18;;;51.30;;
25905;SDS011;13713;52.552;13.204;2022-11-15T08:57:07;132.88;;;53.10;;
25905;SDS011;13713;52.552;13.204;2022-11-15T08:59:53;138.23;;;57.78;;
25905;SDS011;13713;52.552;13.204;2022-11-15T09:02:37;131.60;;;57.63;;
25905;SDS011;13713;52.552;13.204;2022-11-15T09:05:22;115.93;;;54.58;;
25905;SDS011;13713;52.552;13.204;2022-11-15T09:08:06;116.97;;;52.20;;
25905;SDS011;13713;52.552;13.204;2022-11-15T09:10:51;105.43;;;49.78;;
25905;SDS011;13713;52.552;13.204;2022-11-15T09:13:35;119.13;;;49.30;;
25905;SDS011;13713;52.552;13.204;2022-11-15T09:16:23;150.00;;;51.38;;
25905;SDS011;13713;52.552;13.204;2022-11-15T09:19:07;140.98;;;52.40;;
25905;SDS011;13713;52.552;13.204;2022-11-15T09:21:51;132.75;;;49.63;;
25905;SDS011;13713;52.552;13.204;2022-11-15T09:24:36;113.75;;;46.10;;
25905;SDS011;13713;52.552;13.204;2022-11-15T09:27:20;115.40;;;44.90;;
25905;SDS011;13713;52.552;13.204;2022-11-15T09:30:05;115.68;;;45.92;;
25905;SDS011;13713;52.552;13.204;2022-11-15T09:32:51;110.32;;;45.40;;
25905;SDS011;13713;52.552;13.204;2022-11-15T09:35:35;123.60;;;52.33;;
25905;SDS011;13713;52.552;13.204;2022-11-15T09:38:20;114.43;;;49.88;;
25905;SDS011;13713;52.552;13.204;2022-11-15T09:49:45;124.43;;;47.78;;
25905;SDS011;13713;52.552;13.204;2022-11-15T09:52:22;129.00;;;52.83;;
25905;SDS011;13713;52.552;13.204;2022-11-15T09:54:49;133.98;;;50.67;;
25905;SDS011;13713;52.552;13.204;2022-11-15T09:57:33;133.02;;;50.47;;
25905;SDS011;13713;52.552;13.204;2022-11-15T10:03:02;125.13;;;52.58;;
25905;SDS011;13713;52.552;13.204;2022-11-15T10:05:35;126.45;;;51.50;;
25905;SDS011;13713;52.552;13.204;2022-11-15T10:10:50;141.70;;;53.60;;
25905;SDS011;13713;52.552;13.204;2022-11-15T10:13:30;130.68;;;51.67;;
25905;SDS011;13713;52.552;13.204;2022-11-15T10:16:03;145.70;;;54.60;;
25905;SDS011;13713;52.552;13.204;2022-11-15T10:24:26;131.73;;;47.97;;
25905;SDS011;13713;52.552;13.204;2022-11-15T10:26:54;116.38;;;46.85;;
25905;SDS011;13713;52.552;13.204;2022-11-15T10:29:22;132.68;;;53.53;;
25905;SDS011;13713;52.552;13.204;2022-11-15T10:31:50;130.35;;;51.22;;
25905;SDS011;13713;52.552;13.204;2022-11-15T10:34:18;117.00;;;51.55;;
25905;SDS011;13713;52.552;13.204;2022-11-15T10:39:21;120.63;;;50.63;;
25905;SDS011;13713;52.552;13.204;2022-11-15T10:41:47;125.90;;;49.65;;
25905;SDS011;13713;52.552;13.204;2022-11-15T10:44:20;127.95;;;47.28;;
25905;SDS011;13713;52.552;13.204;2022-11-15T10:46:47;116.80;;;47.65;;
25905;SDS011;13713;52.552;13.204;2022-11-15T10:54:37;119.53;;;45.83;;
25905;SDS011;13713;52.552;13.204;2022-11-15T10:57:13;111.57;;;42.50;;
25905;SDS011;13713;52.552;13.204;2022-11-15T10:59:42;125.30;;;46.40;;
25905;SDS011;13713;52.552;13.204;2022-11-15T11:05:07;118.32;;;43.67;;
25905;SDS011;13713;52.552;13.204;2022-11-15T11:08:02;127.03;;;50.37;;
25905;SDS011;13713;52.552;13.204;2022-11-15T11:10:29;139.52;;;51.10;;
25905;SDS011;13713;52.552;13.204;2022-11-15T11:12:55;167.88;;;74.95;;
25905;SDS011;13713;52.552;13.204;2022-11-15T11:15:37;163.00;;;60.15;;
25905;SDS011;13713;52.552;13.204;2022-11-15T11:18:07;143.80;;;53.78;;
25905;SDS011;13713;52.552;13.204;2022-11-15T11:20:45;129.98;;;50.60;;
25905;SDS011;13713;52.552;13.204;2022-11-15T11:23:23;149.13;;;53.92;;
25905;SDS011;13713;52.552;13.204;2022-11-15T11:26:44;142.13;;;53.15;;
25905;SDS011;13713;52.552;13.204;2022-11-15T11:29:24;148.35;;;56.25;;
25905;SDS011;13713;52.552;13.204;2022-11-15T11:48:00;150.88;;;54.05;;
25905;SDS011;13713;52.552;13.204;2022-11-15T11:50:38;143.73;;;50.25;;
25905;SDS011;13713;52.552;13.204;2022-11-15T11:53:14;133.80;;;50.15;;
25905;SDS011;13713;52.552;13.204;2022-11-15T11:55:53;166.75;;;57.72;;
25905;SDS011;13713;52.552;13.204;2022-11-15T12:01:16;177.95;;;52.78;;
25905;SDS011;13713;52.552;13.204;2022-11-15T12:06:49;139.98;;;51.60;;
25905;SDS011;13713;52.552;13.204;2022-11-15T12:17:34;164.38;;;56.85;;
25905;SDS011;13713;52.552;13.204;2022-11-15T12:20:03;165.77;;;59.03;;
25905;SDS011;13713;52.552;13.204;2022-11-15T12:25:39;157.75;;;59.53;;
25905;SDS011;13713;52.552;13.204;2022-11-15T12:31:24;167.07;;;62.22;;
25905;SDS011;13713;52.552;13.204;2022-11-15T12:34:01;164.52;;;58.83;;
25905;SDS011;13713;52.552;13.204;2022-11-15T12:36:34;170.82;;;64.18;;
25905;SDS011;13713;52.552;13.204;2022-11-15T12:39:13;177.18;;;64.97;;
25905;SDS011;13713;52.552;13.204;2022-11-15T12:41:43;170.30;;;66.38;;
25905;SDS011;13713;52.552;13.204;2022-11-15T12:59:47;196.20;;;73.22;;
25905;SDS011;13713;52.552;13.204;2022-11-15T13:02:42;197.90;;;80.10;;
25905;SDS011;13713;52.552;13.204;2022-11-15T13:17:40;207.65;;;85.75;;
25905;SDS011;13713;52.552;13.204;2022-11-15T13:22:41;215.80;;;78.70;;
25905;SDS011;13713;52.552;13.204;2022-11-15T13:30:40;204.35;;;79.28;;
25905;SDS011;13713;52.552;13.204;2022-11-15T13:33:31;220.40;;;86.73;;
25905;SDS011;13713;52.552;13.204;2022-11-15T13:35:57;216.98;;;89.03;;
25905;SDS011;13713;52.552;13.204;2022-11-15T13:38:27;221.77;;;85.18;;
25905;SDS011;13713;52.552;13.204;2022-11-15T13:40:55;225.07;;;90.35;;
25905;SDS011;13713;52.552;13.204;2022-11-15T13:48:32;220.70;;;87.07;;
25905;SDS011;13713;52.552;13.204;2022-11-15T13:50:59;223.48;;;88.05;;
25905;SDS011;13713;52.552;13.204;2022-11-15T13:53:27;247.55;;;96.10;;
25905;SDS011;13713;52.552;13.204;2022-11-15T13:55:54;223.43;;;93.68;;
25905;SDS011;13713;52.552;13.204;2022-11-15T13:58:22;211.55;;;88.32;;
25905;SDS011;13713;52.552;13.204;2022-11-15T14:00:47;214.35;;;86.47;;
25905;SDS011;13713;52.552;13.204;2022-11-15T14:03:30;213.40;;;88.25;;
25905;SDS011;13713;52.552;13.204;2022-11-15T14:08:29;206.90;;;80.70;;
25905;SDS011;13713;52.552;13.204;2022-11-15T14:13:34;216.50;;;84.05;;
25905;SDS011;13713;52.552;13.204;2022-11-15T14:21:15;211.25;;;83.22;;
25905;SDS011;13713;52.552;13.204;2022-11-15T14:23:42;195.35;;;74.15;;
25905;SDS011;13713;52.552;13.204;2022-11-15T14:31:51;177.63;;;72.85;;
25905;SDS011;13713;52.552;13.204;2022-11-15T14:34:18;216.30;;;78.32;;
25905;SDS011;13713;52.552;13.204;2022-11-15T14:36:43;206.73;;;78.82;;
25905;SDS011;13713;52.552;13.204;2022-11-15T14:39:09;192.40;;;76.65;;
25905;SDS011;13713;52.552;13.204;2022-11-15T14:41:35;199.55;;;75.03;;
25905;SDS011;13713;52.552;13.204;2022-11-15T14:44:04;192.57;;;72.93;;
25905;SDS011;13713;52.552;13.204;2022-11-15T14:46:31;218.85;;;81.28;;
25905;SDS011;13713;52.552;13.204;2022-11-15T14:48:57;223.77;;;82.40;;
25905;SDS011;13713;52.552;13.204;2022-11-15T14:51:23;221.93;;;79.18;;
25905;SDS011;13713;52.552;13.204;2022-11-15T14:53:48;188.02;;;73.00;;
25905;SDS011;13713;52.552;13.204;2022-11-15T14:56:14;196.95;;;74.75;;
25905;SDS011;13713;52.552;13.204;2022-11-15T14:58:41;193.05;;;76.47;;
25905;SDS011;13713;52.552;13.204;2022-11-15T15:03:37;189.50;;;71.63;;
25905;SDS011;13713;52.552;13.204;2022-11-15T15:06:03;197.40;;;74.20;;
25905;SDS011;13713;52.552;13.204;2022-11-15T15:08:29;190.70;;;68.88;;
25905;SDS011;13713;52.552;13.204;2022-11-15T15:10:54;185.88;;;70.05;;
25905;SDS011;13713;52.552;13.204;2022-11-15T15:13:21;176.75;;;65.55;;
25905;SDS011;13713;52.552;13.204;2022-11-15T15:15:49;199.75;;;70.30;;
25905;SDS011;13713;52.552;13.204;2022-11-15T15:18:16;165.85;;;64.10;;
25905;SDS011;13713;52.552;13.204;2022-11-15T15:20:43;181.52;;;65.15;;
25905;SDS011;13713;52.552;13.204;2022-11-15T15:23:17;162.07;;;63.45;;
25905;SDS011;13713;52.552;13.204;2022-11-15T15:25:44;136.80;;;55.70;;
25905;SDS011;13713;52.552;13.204;2022-11-15T15:28:11;139.10;;;56.28;;
25905;SDS011;13713;52.552;13.204;2022-11-15T15:30:38;153.30;;;59.47;;
25905;SDS011;13713;52.552;13.204;2022-11-15T15:33:03;153.07;;;57.95;;
25905;SDS011;13713;52.552;13.204;2022-11-15T15:35:30;145.75;;;57.70;;
25905;SDS011;13713;52.552;13.204;2022-11-15T15:37:58;145.30;;;57.30;;
25905;SDS011;13713;52.552;13.204;2022-11-15T15:40:25;132.38;;;55.38;;
25905;SDS011;13713;52.552;13.204;2022-11-15T15:42:52;136.77;;;55.67;;
25905;SDS011;13713;52.552;13.204;2022-11-15T15:45:18;134.85;;;54.53;;
25905;SDS011;13713;52.552;13.204;2022-11-15T15:47:44;127.03;;;54.70;;
25905;SDS011;13713;52.552;13.204;2022-11-15T15:50:16;139.80;;;54.17;;
25905;SDS011;13713;52.552;13.204;2022-11-15T15:52:50;135.30;;;56.15;;
25905;SDS011;13713;52.552;13.204;2022-11-15T15:55:18;135.93;;;55.92;;
25905;SDS011;13713;52.552;13.204;2022-11-15T15:57:43;139.60;;;56.65;;
25905;SDS011;13713;52.552;13.204;2022-11-15T16:00:09;129.38;;;55.25;;
25905;SDS011;13713;52.552;13.204;2022-11-15T16:02:39;123.65;;;52.40;;
25905;SDS011;13713;52.552;13.204;2022-11-15T16:05:05;133.05;;;53.97;;
25905;SDS011;13713;52.552;13.204;2022-11-15T16:07:31;137.05;;;53.05;;
25905;SDS011;13713;52.552;13.204;2022-11-15T16:09:57;119.28;;;52.25;;
25905;SDS011;13713;52.552;13.204;2022-11-15T16:12:29;120.80;;;52.40;;
25905;SDS011;13713;52.552;13.204;2022-11-15T16:14:56;129.17;;;53.80;;
25905;SDS011;13713;52.552;13.204;2022-11-15T16:17:32;125.85;;;51.58;;
25905;SDS011;13713;52.552;13.204;2022-11-15T16:20:02;118.68;;;50.95;;
25905;SDS011;13713;52.552;13.204;2022-11-15T16:22:28;118.70;;;52.67;;
25905;SDS011;13713;52.552;13.204;2022-11-15T16:24:54;112.43;;;48.60;;
25905;SDS011;13713;52.552;13.204;2022-11-15T16:27:20;115.15;;;51.72;;
25905;SDS011;13713;52.552;13.204;2022-11-15T16:29:47;121.07;;;51.00;;
25905;SDS011;13713;52.552;13.204;2022-11-15T16:32:13;112.93;;;50.13;;
25905;SDS011;13713;52.552;13.204;2022-11-15T16:34:39;111.60;;;49.85;;
25905;SDS011;13713;52.552;13.204;2022-11-15T16:37:05;123.22;;;51.38;;
25905;SDS011;13713;52.552;13.204;2022-11-15T16:39:31;120.80;;;51.80;;
25905;SDS011;13713;52.552;13.204;2022-11-15T16:41:57;113.75;;;51.53;;
25905;SDS011;13713;52.552;13.204;2022-11-15T16:44:23;109.90;;;49.15;;
25905;SDS011;13713;52.552;13.204;2022-11-15T16:46:49;108.32;;;49.45;;
25905;SDS011;13713;52.552;13.204;2022-11-15T16:49:16;111.03;;;51.13;;
25905;SDS011;13713;52.552;13.204;2022-11-15T16:51:46;110.53;;;48.30;;
25905;SDS011;13713;52.552;13.204;2022-11-15T16:54:13;104.75;;;48.47;;
25905;SDS011;13713;52.552;13.204;2022-11-15T16:56:39;108.65;;;49.08;;
25905;SDS011;13713;52.552;13.204;2022-11-15T16:59:06;110.07;;;49.13;;
25905;SDS011;13713;52.552;13.204;2022-11-15T17:01:34;105.95;;;48.35;;
25905;SDS011;13713;52.552;13.204;2022-11-15T17:04:10;103.57;;;48.45;;
25905;SDS011;13713;52.552;13.204;2022-11-15T17:06:41;110.43;;;47.35;;
25905;SDS011;13713;52.552;13.204;2022-11-15T17:09:15;97.65;;;46.40;;
25905;SDS011;13713;52.552;13.204;2022-11-15T17:11:43;103.28;;;47.40;;
25905;SDS011;13713;52.552;13.204;2022-11-15T17:14:09;98.05;;;45.55;;
25905;SDS011;13713;52.552;13.204;2022-11-15T17:16:36;104.93;;;48.13;;
25905;SDS011;13713;52.552;13.204;2022-11-15T17:19:06;94.15;;;45.92;;
25905;SDS011;13713;52.552;13.204;2022-11-15T17:21:38;93.75;;;46.83;;
25905;SDS011;13713;52.552;13.204;2022-11-15T17:24:03;96.18;;;45.72;;
25905;SDS011;13713;52.552;13.204;2022-11-15T17:26:29;101.15;;;46.33;;
25905;SDS011;13713;52.552;13.204;2022-11-15T17:28:55;98.03;;;46.45;;
25905;SDS011;13713;52.552;13.204;2022-11-15T17:31:21;101.88;;;47.35;;
25905;SDS011;13713;52.552;13.204;2022-11-15T17:33:47;94.78;;;45.50;;
25905;SDS011;13713;52.552;13.204;2022-11-15T17:36:13;94.88;;;46.80;;
25905;SDS011;13713;52.552;13.204;2022-11-15T17:38:41;89.22;;;45.42;;
25905;SDS011;13713;52.552;13.204;2022-11-15T17:41:14;94.07;;;46.47;;
25905;SDS011;13713;52.552;13.204;2022-11-15T17:43:40;90.38;;;45.75;;